createdAt,value
2022-10-20T00:03:41.507Z,84.74
2022-10-20T00:13:48.482Z,84.51
2022-10-20T00:23:51.564Z,84.28
2022-10-20T00:33:55.592Z,83.76
2022-10-20T00:44:00.156Z,83.94
2022-10-20T00:54:09.764Z,84.07
2022-10-20T01:04:12.975Z,83.81
2022-10-20T01:14:30.899Z,83.55
2022-10-20T01:25:02.618Z,84.17
2022-10-20T01:35:12.718Z,84.02
2022-10-20T01:45:18.267Z,84.41
2022-10-20T01:55:22.264Z,83.80
2022-10-20T02:05:41.054Z,84.51
2022-10-20T02:15:49.262Z,84.74
2022-10-20T02:25:54.204Z,84.83
2022-10-20T02:35:59.893Z,85.51
2022-10-20T02:46:02.787Z,85.27
2022-10-20T02:56:07.256Z,85.49
2022-10-20T03:06:11.585Z,86.18
2022-10-20T03:16:15.530Z,85.98
2022-10-20T03:26:18.380Z,85.91
2022-10-20T03:36:24.312Z,86.67
2022-10-20T03:46:27.118Z,86.52
2022-10-20T03:56:31.163Z,87.12
2022-10-20T04:06:33.781Z,87.49
2022-10-20T04:16:37.764Z,87.44
2022-10-20T04:26:40.450Z,87.84
2022-10-20T04:36:44.487Z,87.50
2022-10-20T04:46:47.084Z,87.96
2022-10-20T04:56:51.042Z,87.89
2022-10-20T05:06:53.640Z,87.54
2022-10-20T05:16:57.636Z,87.49
2022-10-20T05:27:00.284Z,87.77
2022-10-20T05:37:04.323Z,87.75
2022-10-20T05:47:06.903Z,88.20
2022-10-20T05:57:10.872Z,87.42
2022-10-20T06:07:13.473Z,87.85
2022-10-20T06:17:17.495Z,87.68
2022-10-20T06:27:20.103Z,88.22
2022-10-20T06:37:24.041Z,87.50
2022-10-20T06:47:26.652Z,87.99
2022-10-20T06:57:31.923Z,87.04
2022-10-20T07:17:43.466Z,86.22
2022-10-20T07:27:46.079Z,86.22
2022-10-20T07:37:51.360Z,84.53
2022-10-20T07:47:54.355Z,83.41
2022-10-20T07:57:58.306Z,83.50
2022-10-20T08:08:01.164Z,82.81
2022-10-20T08:18:05.583Z,80.46
2022-10-20T08:28:09.191Z,80.55
2022-10-20T08:38:13.125Z,80.46
2022-10-20T08:48:19.406Z,80.18
2022-10-20T08:58:25.523Z,78.35
2022-10-20T09:08:31.358Z,77.63
2022-10-20T09:18:35.961Z,76.82
2022-10-20T09:29:02.010Z,75.65
2022-10-20T09:39:03.103Z,74.98
2022-10-20T09:49:07.063Z,72.74
2022-10-20T09:59:22.049Z,73.51
2022-10-20T10:09:28.462Z,71.28
2022-10-20T10:19:34.266Z,70.88
2022-10-20T10:29:37.337Z,69.92
2022-10-20T10:39:41.731Z,69.49
2022-10-20T10:49:56.877Z,70.78
2022-10-20T11:00:03.717Z,71.22
2022-10-20T11:10:12.747Z,69.12
2022-10-20T11:20:28.443Z,67.06
2022-10-20T11:30:34.875Z,68.97
2022-10-20T11:40:44.828Z,69.92
2022-10-20T11:50:53.787Z,69.89
2022-10-20T12:01:04.526Z,60.03
2022-10-20T12:11:13.710Z,52.98
2022-10-20T12:21:56.508Z,58.95
2022-10-20T12:32:24.850Z,64.82
2022-10-20T12:42:31.630Z,67.43
2022-10-20T12:52:37.093Z,68.85
2022-10-20T13:02:51.110Z,71.09
2022-10-20T13:12:54.189Z,71.54
2022-10-20T13:33:18.348Z,73.06
2022-10-20T13:43:43.419Z,75.32
2022-10-20T13:53:49.815Z,78.39
2022-10-20T14:03:53.973Z,80.50
2022-10-20T14:13:56.943Z,82.54
2022-10-20T14:24:04.164Z,83.55
2022-10-20T14:34:06.867Z,84.99
2022-10-20T14:44:31.050Z,85.61
2022-10-20T14:54:37.421Z,86.09
2022-10-20T15:04:42.782Z,87.33
2022-10-20T15:14:48.024Z,88.64
2022-10-20T15:24:52.103Z,90.35
2022-10-20T15:34:54.686Z,90.98
2022-10-20T15:44:58.675Z,90.48
2022-10-20T15:55:01.268Z,90.96
2022-10-20T16:05:05.930Z,90.33
2022-10-20T16:15:10.315Z,90.44
2022-10-20T16:25:14.456Z,91.52
2022-10-20T16:35:17.295Z,91.53
2022-10-20T16:45:21.238Z,91.50
2022-10-20T16:55:23.856Z,91.33
2022-10-20T17:05:27.798Z,91.50
2022-10-20T17:15:30.694Z,91.46
2022-10-20T17:25:34.748Z,91.44
2022-10-20T17:35:37.817Z,91.70
2022-10-20T17:45:41.945Z,91.63
2022-10-20T17:55:44.556Z,91.66
2022-10-20T18:05:48.562Z,91.75
2022-10-20T18:15:51.186Z,92.24
2022-10-20T18:25:55.463Z,92.06
2022-10-20T18:35:58.038Z,92.57
2022-10-20T18:46:03.044Z,92.02
2022-10-20T18:56:07.343Z,93.08
2022-10-20T19:06:13.177Z,92.53
2022-10-20T19:16:17.994Z,92.82
2022-10-20T19:26:24.835Z,92.71
2022-10-20T19:36:28.580Z,92.72
2022-10-20T19:46:32.879Z,93.01
2022-10-20T19:56:35.771Z,92.75
2022-10-20T20:06:39.889Z,93.11
2022-10-20T20:26:47.042Z,94.00
2022-10-20T20:36:49.695Z,93.33
2022-10-20T20:46:53.893Z,94.18
2022-10-20T20:56:56.619Z,93.63
2022-10-20T21:07:02.780Z,93.67
2022-10-20T21:17:05.714Z,93.43
2022-10-20T21:27:09.671Z,93.68
2022-10-20T21:37:12.366Z,93.68
2022-10-20T21:47:16.315Z,94.44
2022-10-20T21:57:18.973Z,94.72
2022-10-20T22:07:23.801Z,95.42
2022-10-20T22:17:26.423Z,94.75
2022-10-20T22:27:41.911Z,94.38
2022-10-20T22:37:45.134Z,94.86
2022-10-20T22:47:49.098Z,94.50
2022-10-20T22:57:53.115Z,94.55
2022-10-20T23:07:57.125Z,94.24
2022-10-20T23:17:59.739Z,94.21
2022-10-20T23:28:03.707Z,93.98
2022-10-20T23:38:08.484Z,93.83
2022-10-20T23:48:13.589Z,93.88
2022-10-20T23:58:20.908Z,93.95
